Kiowa, Kansas
Current Conditions -  °F | °C
As of 6:10 PM on Wednesday 22 Oct 2014 (Local Time) from KAVK Reporting Station
Overcast Overcast  
Wind Chill: 64°   Ceiling: 11000
Heat Index: 64°   Visibility: 10mi
Dew Point: 59°   Wind: 8mph
Humidity: 83%   Direction: 180°S
Pressure: 30.06"   Gusts: NA
Location:  37.02°N, 98.49°W
Report Text: KAVK 222310Z AUTO 18007KT 10SM FEW065 OVC110 18/15 A3006 RMK AO2
Loading
Personal Weather Stations






























Interactive Weather Map
Tropical Storm Tracking
New forecast layout! Learn more

10-Day Weather Forecast

Advertisements
Track Severe Weather on mobile